This is the latest recevied weather packets stored in our database for station/object Wangen. If no packets are shown the sender has not sent any weather packets the latest 10 day(s).
| Time | Temp. | Humidity | Pressure | Rain* | Wind** | Luminosity | Snow |
|---|---|---|---|---|---|---|---|
| 1777703532 | 11.67° C | 68% | 1022 hPa | 0 mm | - | - | - |
| 1777701731 | 9.44° C | 75% | 1022 hPa | 0 mm | - | - | - |
| 1777699931 | 7.78° C | 79% | 1022 hPa | 0 mm | - | - | - |
| 1777698131 | 6.11° C | 82% | 1021.9 hPa | 0 mm | - | - | - |
| 1777696331 | 5.56° C | 83% | 1021.7 hPa | 0 mm | - | - | - |
| 1777694533 | 5.56° C | 82% | 1021.7 hPa | 0 mm | - | - | - |
| 1777692731 | 6.11° C | 80% | 1021.6 hPa | 0 mm | - | - | - |
| 1777690931 | 6.67° C | 80% | 1021.7 hPa | 0 mm | - | - | - |
| 1777689134 | 6.67° C | 79% | 1021.7 hPa | 0 mm | - | - | - |
| 1777687332 | 6.67° C | 79% | 1021.6 hPa | 0 mm | - | - | - |
| 1777685531 | 7.22° C | 77% | 1021.7 hPa | 0 mm | - | - | - |
| 1777683731 | 7.78° C | 75% | 1021.9 hPa | 0 mm | - | - | - |
| 1777681929 | 8.89° C | 72% | 1021.9 hPa | 0 mm | - | - | - |
| 1777680129 | 9.44° C | 70% | 1022.1 hPa | 0 mm | - | - | - |
| 1777678330 | 9.44° C | 69% | 1022.1 hPa | 0 mm | - | - | - |
| 1777676530 | 10° C | 67% | 1022.2 hPa | 0 mm | - | - | - |
| 1777674730 | 11.11° C | 61% | 1022.2 hPa | 0 mm | - | - | - |
| 1777671130 | 13.89° C | 51% | 1022.2 hPa | 0 mm | - | - | - |
| 1777669330 | 14.44° C | 50% | 1022.1 hPa | 0 mm | - | - | - |
| 1777667529 | 15° C | 48% | 1022.1 hPa | 0 mm | - | - | - |
| 1777665732 | 15.56° C | 46% | 1022.1 hPa | 0 mm | - | - | - |
| 1777663929 | 17.22° C | 42% | 1021.8 hPa | 0 mm | - | - | - |
| 1777662130 | 18.33° C | 39% | 1021.7 hPa | 0 mm | - | - | - |
| 1777660331 | 19.44° C | 35% | 1021.4 hPa | 0 mm | - | - | - |
| 1777658531 | 20.56° C | 31% | 1021.3 hPa | 0 mm | - | - | - |
* Rain since midnight (hover to see other rain measurements)
** Current wind speed in m/s (hover to see current wind gust speed)